Time;durP1;ratioP1;P1;durP2;ratioP2;P2;SDS_P1;SDS_P2;PMS_P1;PMS_P2;Temp;Humidity;BMP_temperature;BMP_pressure;BME280_temperature;BME280_humidity;BME280_pressure;Samples;Min_cycle;Max_cycle;Signal;HPM_P1;HPM_P2
2023/03/19 00:01:56;;;;;;;12.23;7.63;;;11.80;99.90;;;;;;4954616;28;20548;-75
2023/03/19 00:04:23;;;;;;;9.48;7.25;;;11.60;99.90;;;;;;4970179;28;20039;-75
2023/03/19 00:06:49;;;;;;;9.18;6.18;;;11.60;99.90;;;;;;4939567;28;20416;-75
2023/03/19 00:09:16;;;;;;;9.38;5.88;;;11.50;99.90;;;;;;4976555;28;20043;-75
2023/03/19 00:11:41;;;;;;;8.32;5.60;;;11.70;99.90;;;;;;4952010;28;20176;-75
2023/03/19 00:14:07;;;;;;;9.13;5.22;;;11.60;99.90;;;;;;4958420;28;20129;-74
2023/03/19 00:16:33;;;;;;;9.32;5.85;;;11.70;99.90;;;;;;4956888;28;20057;-74
2023/03/19 00:19:00;;;;;;;8.93;4.57;;;11.70;99.90;;;;;;4968653;28;20141;-75
2023/03/19 00:21:26;;;;;;;8.70;4.68;;;11.80;99.90;;;;;;4955096;28;20356;-75
2023/03/19 00:23:59;;;;;;;7.70;4.93;;;11.80;99.90;;;;;;4966623;28;20046;-75
2023/03/19 00:26:27;;;;;;;7.28;4.40;;;11.80;99.90;;;;;;4969668;28;20046;-74
2023/03/19 00:28:53;;;;;;;6.95;4.07;;;11.70;99.90;;;;;;4951666;28;20053;-75
2023/03/19 00:31:19;;;;;;;7.15;3.58;;;11.80;99.90;;;;;;4972432;28;20113;-75
2023/03/19 00:33:45;;;;;;;7.93;3.50;;;11.80;99.90;;;;;;4963143;28;20085;-75
2023/03/19 00:36:11;;;;;;;5.75;3.03;;;11.80;99.90;;;;;;4971308;28;20042;-75
2023/03/19 00:38:37;;;;;;;9.50;3.40;;;11.90;99.90;;;;;;4958207;28;20189;-75
2023/03/19 00:41:04;;;;;;;6.55;3.10;;;11.90;99.90;;;;;;4975991;28;20121;-75
2023/03/19 00:43:30;;;;;;;7.50;2.88;;;12.00;99.90;;;;;;4972763;28;20046;-75
2023/03/19 00:45:56;;;;;;;7.07;3.15;;;12.00;99.90;;;;;;4974978;28;20050;-75
2023/03/19 00:48:22;;;;;;;4.45;3.00;;;12.00;99.90;;;;;;4982063;28;20379;-74
2023/03/19 00:50:49;;;;;;;6.35;2.72;;;11.90;99.90;;;;;;4969144;28;20443;-73
2023/03/19 00:53:15;;;;;;;5.13;2.60;;;12.00;99.90;;;;;;4964857;28;20047;-74
2023/03/19 00:55:41;;;;;;;4.50;2.58;;;11.90;99.90;;;;;;4968136;28;20049;-74
2023/03/19 00:58:07;;;;;;;5.93;2.80;;;11.90;99.90;;;;;;4973403;28;20073;-74
2023/03/19 01:00:33;;;;;;;4.75;2.67;;;11.90;99.90;;;;;;4953360;28;20078;-74
2023/03/19 01:02:59;;;;;;;4.63;2.35;;;11.90;99.90;;;;;;4973305;28;20062;-74
2023/03/19 01:05:25;;;;;;;6.60;2.47;;;12.00;99.90;;;;;;4963111;28;20050;-75
2023/03/19 01:07:50;;;;;;;4.75;2.40;;;11.90;99.90;;;;;;4986829;28;20101;-75
2023/03/19 01:10:19;;;;;;;3.65;2.30;;;11.90;99.90;;;;;;4975121;28;20042;-75
2023/03/19 01:12:45;;;;;;;5.75;2.45;;;11.90;99.90;;;;;;4957302;28;20046;-75
2023/03/19 01:15:10;;;;;;;5.63;2.05;;;12.00;99.90;;;;;;4965821;28;20097;-75
2023/03/19 01:17:36;;;;;;;4.65;2.10;;;12.00;99.90;;;;;;4984352;28;20057;-75
2023/03/19 01:20:03;;;;;;;3.47;2.13;;;12.00;99.90;;;;;;4946378;28;20109;-75
2023/03/19 01:22:29;;;;;;;3.60;1.95;;;12.00;99.90;;;;;;4943915;28;20125;-75
2023/03/19 01:24:55;;;;;;;5.03;2.60;;;11.90;99.90;;;;;;4969831;28;20054;-75
2023/03/19 01:27:21;;;;;;;6.30;2.60;;;11.90;99.90;;;;;;4971645;28;20526;-74
2023/03/19 01:29:46;;;;;;;3.85;2.05;;;11.90;99.90;;;;;;4950339;28;20046;-75
2023/03/19 01:32:12;;;;;;;4.25;2.00;;;11.90;99.90;;;;;;4941274;28;20077;-75
2023/03/19 01:34:38;;;;;;;5.30;2.70;;;11.80;99.90;;;;;;4979272;28;20055;-74
2023/03/19 01:37:04;;;;;;;5.53;2.20;;;11.70;99.90;;;;;;4975063;28;20050;-75
2023/03/19 01:39:30;;;;;;;6.50;2.50;;;11.70;99.90;;;;;;4989294;28;20046;-74
2023/03/19 01:42:00;;;;;;;4.50;2.55;;;11.70;99.90;;;;;;4967316;28;20049;-75
2023/03/19 01:44:31;;;;;;;4.28;2.33;;;11.60;99.90;;;;;;4973531;28;20078;-75
2023/03/19 01:46:57;;;;;;;9.35;3.40;;;11.60;99.90;;;;;;4968508;28;20053;-74
2023/03/19 01:49:23;;;;;;;3.45;2.35;;;11.60;99.90;;;;;;4954406;28;20042;-75
2023/03/19 01:51:49;;;;;;;4.53;2.80;;;11.60;99.90;;;;;;4971913;28;20046;-74
2023/03/19 01:54:17;;;;;;;6.55;2.80;;;11.60;99.90;;;;;;4962851;28;20116;-74
2023/03/19 01:56:43;;;;;;;5.57;2.60;;;11.50;99.90;;;;;;4973781;28;20042;-74
2023/03/19 01:59:20;;;;;;;7.47;3.05;;;11.50;99.90;;;;;;4961319;28;20057;-74
2023/03/19 02:01:56;;;;;;;4.20;2.80;;;11.60;99.90;;;;;;4986804;28;20042;-74
2023/03/19 02:04:23;;;;;;;5.97;2.72;;;11.50;99.90;;;;;;4960764;28;20112;-74
2023/03/19 02:06:49;;;;;;;7.40;2.83;;;11.40;99.90;;;;;;4970880;28;20068;-75
2023/03/19 02:09:17;;;;;;;5.50;2.85;;;11.30;99.90;;;;;;4969413;28;20057;-74
2023/03/19 02:11:42;;;;;;;6.07;2.78;;;11.30;99.90;;;;;;4953517;28;20483;-75
2023/03/19 02:14:08;;;;;;;6.10;2.70;;;11.40;99.90;;;;;;4935975;28;20066;-75
2023/03/19 02:16:40;;;;;;;5.78;2.90;;;11.30;99.90;;;;;;4954064;28;20046;-75
2023/03/19 02:19:07;;;;;;;6.78;2.97;;;11.20;99.90;;;;;;4984679;28;20046;-75
2023/03/19 02:21:33;;;;;;;4.72;2.30;;;11.20;99.90;;;;;;4975595;28;20038;-75
2023/03/19 02:24:10;;;;;;;5.10;2.90;;;11.20;99.90;;;;;;4970413;28;20073;-75
2023/03/19 02:26:36;;;;;;;6.65;3.13;;;11.10;99.90;;;;;;4989669;28;20052;-74
2023/03/19 02:29:03;;;;;;;6.30;3.42;;;11.10;99.90;;;;;;4976796;28;20730;-75
2023/03/19 02:31:28;;;;;;;5.68;3.60;;;11.00;99.90;;;;;;4970300;28;20427;-75
2023/03/19 02:34:04;;;;;;;10.48;4.20;;;11.00;99.90;;;;;;4991496;28;20066;-75
2023/03/19 02:36:39;;;;;;;8.45;4.30;;;11.00;99.90;;;;;;4980666;28;20046;-75
2023/03/19 02:39:07;;;;;;;9.50;4.00;;;11.00;99.90;;;;;;4978408;28;20120;-75
2023/03/19 02:41:33;;;;;;;5.88;3.90;;;11.00;99.90;;;;;;4974705;28;20046;-75
2023/03/19 02:44:00;;;;;;;6.55;3.78;;;11.00;99.90;;;;;;4951379;28;20042;-74
2023/03/19 02:46:26;;;;;;;9.68;4.43;;;10.90;99.90;;;;;;4954122;28;20054;-75
2023/03/19 02:48:52;;;;;;;7.10;3.88;;;11.00;99.90;;;;;;4969534;28;20122;-75
2023/03/19 02:51:18;;;;;;;9.00;4.63;;;10.90;99.90;;;;;;4956627;28;20054;-75
2023/03/19 02:53:44;;;;;;;9.27;4.22;;;10.90;99.90;;;;;;4967033;28;20051;-75
2023/03/19 02:56:10;;;;;;;5.72;4.30;;;10.80;99.90;;;;;;4959791;28;20077;-75
2023/03/19 02:58:36;;;;;;;6.82;3.63;;;10.80;99.90;;;;;;4968223;28;20039;-74
2023/03/19 03:01:02;;;;;;;9.77;4.63;;;10.80;99.90;;;;;;4954319;28;20043;-75
2023/03/19 03:03:28;;;;;;;6.25;4.18;;;10.80;99.90;;;;;;4965096;28;20784;-74
2023/03/19 03:05:54;;;;;;;8.13;4.00;;;10.80;99.90;;;;;;4984229;28;20050;-75
2023/03/19 03:08:19;;;;;;;8.85;4.72;;;10.80;99.90;;;;;;4987931;28;20471;-75
2023/03/19 03:10:45;;;;;;;7.85;4.20;;;10.70;99.90;;;;;;4972162;28;20344;-75
2023/03/19 03:13:11;;;;;;;9.88;4.47;;;10.70;99.90;;;;;;4984471;28;20052;-74
2023/03/19 03:15:37;;;;;;;8.73;4.75;;;10.60;99.90;;;;;;4985257;28;20038;-74
2023/03/19 03:18:03;;;;;;;7.25;4.50;;;10.60;99.90;;;;;;4963359;28;20051;-75
2023/03/19 03:20:29;;;;;;;5.63;3.90;;;10.50;99.90;;;;;;4980778;28;20126;-74
2023/03/19 03:22:55;;;;;;;9.07;4.80;;;10.50;99.90;;;;;;4988695;28;20374;-75
2023/03/19 03:25:21;;;;;;;5.82;4.68;;;10.50;99.90;;;;;;4978387;28;20522;-75
2023/03/19 03:27:47;;;;;;;7.55;4.30;;;10.40;99.90;;;;;;4964367;28;20062;-75
2023/03/19 03:30:14;;;;;;;7.40;5.18;;;10.40;99.90;;;;;;4961095;28;20395;-75
2023/03/19 03:32:41;;;;;;;8.55;4.78;;;10.40;99.90;;;;;;4952667;28;20749;-74
2023/03/19 03:35:07;;;;;;;9.07;5.68;;;10.40;99.90;;;;;;4943409;28;20129;-75
2023/03/19 03:37:33;;;;;;;9.50;5.25;;;10.30;99.90;;;;;;4949810;28;20494;-75
2023/03/19 03:39:58;;;;;;;8.32;5.18;;;10.30;99.90;;;;;;4974151;28;20046;-75
2023/03/19 03:42:24;;;;;;;8.00;4.88;;;10.30;99.90;;;;;;4982471;28;20061;-75
2023/03/19 03:44:50;;;;;;;6.22;4.25;;;10.30;99.90;;;;;;4960113;28;20047;-75
2023/03/19 03:47:16;;;;;;;8.65;5.70;;;10.30;99.90;;;;;;4949676;28;20044;-75
2023/03/19 03:49:43;;;;;;;8.20;4.88;;;10.30;99.90;;;;;;4988453;28;20042;-75
2023/03/19 03:52:09;;;;;;;7.50;4.85;;;10.30;99.90;;;;;;4966545;28;20383;-75
2023/03/19 03:54:34;;;;;;;9.90;4.78;;;10.30;99.90;;;;;;4957265;28;20038;-74
2023/03/19 03:57:00;;;;;;;8.20;4.88;;;10.30;99.90;;;;;;4971491;28;20073;-75
2023/03/19 03:59:26;;;;;;;7.07;3.88;;;10.30;99.90;;;;;;4962352;28;20471;-75
2023/03/19 04:01:52;;;;;;;5.57;4.47;;;10.30;99.90;;;;;;4965573;28;20039;-74
2023/03/19 04:04:19;;;;;;;7.88;4.95;;;10.30;99.90;;;;;;4958081;28;20463;-74
2023/03/19 04:06:45;;;;;;;10.63;4.80;;;10.30;99.90;;;;;;4983534;28;20502;-75
2023/03/19 04:09:11;;;;;;;8.80;4.72;;;10.20;99.90;;;;;;4970360;28;20050;-75
2023/03/19 04:11:37;;;;;;;7.57;4.32;;;10.20;99.90;;;;;;4958614;28;20109;-75
2023/03/19 04:14:04;;;;;;;7.20;4.07;;;10.30;99.90;;;;;;4968686;28;20078;-74
2023/03/19 04:16:30;;;;;;;8.38;4.72;;;10.30;99.90;;;;;;4968345;28;20073;-74
2023/03/19 04:18:56;;;;;;;6.88;4.40;;;10.30;99.90;;;;;;4955910;28;20042;-75
2023/03/19 04:21:21;;;;;;;7.68;4.30;;;10.20;99.90;;;;;;4977713;28;20074;-74
2023/03/19 04:23:47;;;;;;;8.75;4.18;;;10.20;99.90;;;;;;4951348;28;20058;-74
2023/03/19 04:26:13;;;;;;;5.82;4.30;;;10.20;99.90;;;;;;4974739;28;20054;-75
2023/03/19 04:28:38;;;;;;;9.98;4.55;;;10.20;99.90;;;;;;4980785;28;20053;-75
2023/03/19 04:31:05;;;;;;;8.68;4.10;;;10.20;99.90;;;;;;4965750;28;20546;-75
2023/03/19 04:33:32;;;;;;;6.20;3.83;;;10.20;99.90;;;;;;4986082;28;20133;-75
2023/03/19 04:35:58;;;;;;;9.77;4.20;;;10.30;99.90;;;;;;4968663;28;20077;-74
2023/03/19 04:38:27;;;;;;;8.05;4.53;;;10.30;99.90;;;;;;4974823;28;20447;-75
2023/03/19 04:40:56;;;;;;;6.97;4.40;;;10.20;99.90;;;;;;4966156;28;20049;-75
2023/03/19 04:43:22;;;;;;;7.28;4.80;;;10.20;99.90;;;;;;4980721;28;20491;-74
2023/03/19 04:45:49;;;;;;;8.88;4.15;;;10.10;99.90;;;;;;4949977;28;20101;-74
2023/03/19 04:48:17;;;;;;;7.75;4.25;;;10.20;99.90;;;;;;4969939;28;20487;-74
2023/03/19 04:50:44;;;;;;;5.63;4.23;;;10.20;99.90;;;;;;4981492;28;20058;-74
2023/03/19 04:53:10;;;;;;;5.88;4.22;;;10.10;99.90;;;;;;4985799;28;20317;-75
2023/03/19 04:55:36;;;;;;;8.48;4.45;;;10.10;99.90;;;;;;4965431;28;20171;-74
2023/03/19 04:58:03;;;;;;;7.65;4.22;;;10.10;99.90;;;;;;4990465;28;20046;-75
2023/03/19 05:00:30;;;;;;;7.50;4.10;;;10.10;99.90;;;;;;4942790;28;20456;-74
2023/03/19 05:02:56;;;;;;;7.70;3.78;;;10.10;99.90;;;;;;4952149;28;20054;-74
2023/03/19 05:05:22;;;;;;;8.15;4.18;;;10.10;99.90;;;;;;4971577;28;20062;-75
2023/03/19 05:07:48;;;;;;;5.90;4.00;;;10.10;99.90;;;;;;4961391;28;20617;-74
2023/03/19 05:10:13;;;;;;;9.73;4.35;;;10.10;99.90;;;;;;4976853;28;20084;-74
2023/03/19 05:12:39;;;;;;;6.88;3.85;;;10.10;99.90;;;;;;4979416;28;20077;-75
2023/03/19 05:15:06;;;;;;;8.75;4.00;;;10.10;99.90;;;;;;4964215;28;20042;-75
2023/03/19 05:17:32;;;;;;;8.40;3.95;;;10.10;99.90;;;;;;4957723;28;20042;-74
2023/03/19 05:19:58;;;;;;;6.72;4.50;;;10.10;99.90;;;;;;4991984;28;20678;-74
2023/03/19 05:22:23;;;;;;;8.63;4.05;;;10.10;99.90;;;;;;4967184;28;20042;-75
2023/03/19 05:24:50;;;;;;;5.78;4.00;;;10.10;99.90;;;;;;4975405;28;20051;-74
2023/03/19 05:27:15;;;;;;;7.53;4.38;;;10.10;99.90;;;;;;4971971;28;20426;-75
2023/03/19 05:29:41;;;;;;;7.00;3.72;;;10.20;99.90;;;;;;4986738;28;20035;-75
2023/03/19 05:32:07;;;;;;;8.30;4.15;;;10.20;99.90;;;;;;4969685;28;20093;-74
2023/03/19 05:34:33;;;;;;;8.40;4.30;;;10.20;99.90;;;;;;4949625;28;20121;-74
2023/03/19 05:36:59;;;;;;;8.10;4.22;;;10.20;99.90;;;;;;4973882;28;20051;-74
2023/03/19 05:39:25;;;;;;;7.45;4.10;;;10.20;99.90;;;;;;4945238;28;20454;-74
2023/03/19 05:41:51;;;;;;;6.25;3.50;;;10.20;99.90;;;;;;4993839;28;20431;-74
2023/03/19 05:44:17;;;;;;;5.35;3.60;;;10.20;99.90;;;;;;4992935;28;20061;-74
2023/03/19 05:46:43;;;;;;;7.55;3.72;;;10.20;99.90;;;;;;4961069;28;20050;-74
2023/03/19 05:49:09;;;;;;;10.70;5.28;;;10.20;99.90;;;;;;4960418;28;20047;-74
2023/03/19 05:51:35;;;;;;;8.10;4.53;;;10.20;99.90;;;;;;4984859;28;20121;-74
2023/03/19 05:54:01;;;;;;;5.68;3.30;;;10.20;99.90;;;;;;4952083;28;20082;-74
2023/03/19 05:56:27;;;;;;;6.70;4.50;;;10.20;99.90;;;;;;4980441;28;20059;-74
2023/03/19 05:58:53;;;;;;;7.85;3.83;;;10.20;99.90;;;;;;4948092;28;20050;-74
2023/03/19 06:01:19;;;;;;;5.68;3.40;;;10.30;99.90;;;;;;4986815;28;20056;-74
2023/03/19 06:03:45;;;;;;;6.43;3.05;;;10.40;99.90;;;;;;4950260;28;20741;-74
2023/03/19 06:06:11;;;;;;;8.95;3.45;;;10.40;99.90;;;;;;4979889;28;20058;-74
2023/03/19 06:08:37;;;;;;;6.88;3.47;;;10.40;99.90;;;;;;4967271;28;20053;-74
2023/03/19 06:11:03;;;;;;;7.32;3.85;;;10.50;99.90;;;;;;4960073;28;20490;-75
2023/03/19 06:13:29;;;;;;;6.47;3.47;;;10.50;99.90;;;;;;4946592;28;20046;-74
2023/03/19 06:15:55;;;;;;;5.20;3.30;;;10.50;99.90;;;;;;4988257;28;20512;-74
2023/03/19 06:18:21;;;;;;;6.22;3.50;;;10.50;99.90;;;;;;4948229;28;20053;-74
2023/03/19 06:20:47;;;;;;;7.75;3.97;;;10.40;99.90;;;;;;4971924;28;20042;-74
2023/03/19 06:23:12;;;;;;;8.23;3.90;;;10.40;99.90;;;;;;4989273;28;20483;-74
2023/03/19 06:25:38;;;;;;;8.07;4.05;;;10.30;99.90;;;;;;4991652;28;20053;-74
2023/03/19 06:28:05;;;;;;;5.95;4.30;;;10.30;99.90;;;;;;4975958;28;20438;-74
2023/03/19 06:30:31;;;;;;;7.45;3.78;;;10.30;99.90;;;;;;4967134;28;20046;-74
2023/03/19 06:32:57;;;;;;;6.00;4.60;;;10.30;99.90;;;;;;4935526;28;20100;-74
2023/03/19 06:35:23;;;;;;;9.13;5.18;;;10.30;99.90;;;;;;4963263;28;20465;-74
2023/03/19 06:37:48;;;;;;;9.60;4.20;;;10.30;99.90;;;;;;4947319;28;20054;-74
2023/03/19 06:40:14;;;;;;;7.95;4.53;;;10.30;99.90;;;;;;4943794;28;20352;-74
2023/03/19 06:42:44;;;;;;;6.68;3.92;;;10.30;99.90;;;;;;4968901;28;20061;-74
2023/03/19 06:45:10;;;;;;;6.60;4.43;;;10.30;99.90;;;;;;4960177;28;20455;-74
2023/03/19 06:47:36;;;;;;;7.43;4.22;;;10.30;99.90;;;;;;4968788;28;20050;-74
2023/03/19 06:50:03;;;;;;;7.35;4.20;;;10.40;99.90;;;;;;4937145;28;20073;-74
2023/03/19 06:52:29;;;;;;;5.57;3.72;;;10.40;99.90;;;;;;4943389;28;20097;-74
2023/03/19 06:54:55;;;;;;;5.95;3.92;;;10.40;99.90;;;;;;4962777;28;20070;-74
2023/03/19 06:57:20;;;;;;;6.03;4.13;;;10.50;99.90;;;;;;4945830;28;20042;-74
2023/03/19 06:59:46;;;;;;;6.97;3.58;;;10.60;99.90;;;;;;4946712;28;20042;-74
2023/03/19 07:02:12;;;;;;;7.22;3.75;;;10.70;99.90;;;;;;4936952;28;20104;-74
2023/03/19 07:04:37;;;;;;;6.95;4.07;;;10.80;99.90;;;;;;4967997;28;20042;-74
2023/03/19 07:07:04;;;;;;;5.50;3.30;;;10.90;99.90;;;;;;4967223;28;20189;-74
2023/03/19 07:09:31;;;;;;;8.40;3.30;;;11.00;99.90;;;;;;4990669;28;20054;-74
2023/03/19 07:11:58;;;;;;;5.95;3.45;;;11.00;99.90;;;;;;4946622;28;20070;-74
2023/03/19 07:14:24;;;;;;;6.25;3.55;;;11.10;99.90;;;;;;4948682;28;20057;-74
2023/03/19 07:16:50;;;;;;;7.72;3.75;;;11.10;99.90;;;;;;4964515;28;20050;-74
2023/03/19 07:19:15;;;;;;;7.50;3.63;;;11.10;99.90;;;;;;4953988;28;20049;-74
2023/03/19 07:21:42;;;;;;;9.57;4.43;;;11.10;99.90;;;;;;4953105;28;20054;-75
2023/03/19 07:24:07;;;;;;;8.38;3.85;;;11.10;99.90;;;;;;4967257;28;20046;-75
2023/03/19 07:26:33;;;;;;;7.45;3.85;;;11.20;99.90;;;;;;4963051;28;20061;-75
2023/03/19 07:28:59;;;;;;;6.75;3.42;;;11.20;99.90;;;;;;4971745;28;20046;-74
2023/03/19 07:31:25;;;;;;;6.95;3.53;;;11.30;99.90;;;;;;4957532;28;20111;-75
2023/03/19 07:33:51;;;;;;;9.45;3.55;;;11.40;99.90;;;;;;4980030;28;20062;-75
2023/03/19 07:36:16;;;;;;;6.93;3.30;;;11.40;99.90;;;;;;4973995;28;20057;-75
2023/03/19 07:38:42;;;;;;;5.93;3.47;;;11.40;99.90;;;;;;4986091;28;20046;-75
2023/03/19 07:41:08;;;;;;;6.70;3.67;;;11.50;99.90;;;;;;4963869;28;20125;-74
2023/03/19 07:43:33;;;;;;;9.32;3.72;;;11.60;99.90;;;;;;4963113;28;20519;-75
2023/03/19 07:45:59;;;;;;;8.55;3.70;;;11.60;99.90;;;;;;4963590;28;20070;-75
2023/03/19 07:48:25;;;;;;;7.43;3.45;;;11.70;99.90;;;;;;4946678;28;20054;-75
2023/03/19 07:50:51;;;;;;;6.25;3.00;;;11.70;99.90;;;;;;4953504;28;20046;-75
2023/03/19 07:53:17;;;;;;;7.53;3.80;;;11.70;99.90;;;;;;4946666;28;20543;-75
2023/03/19 07:55:43;;;;;;;6.28;3.53;;;11.70;99.90;;;;;;4946856;28;20054;-75
2023/03/19 07:58:09;;;;;;;6.10;3.13;;;11.70;99.90;;;;;;4973852;28;20539;-75
2023/03/19 08:00:34;;;;;;;7.03;3.47;;;11.80;99.90;;;;;;4986181;28;20446;-75
2023/03/19 08:03:00;;;;;;;6.28;3.47;;;11.80;99.90;;;;;;4967122;28;20076;-75
2023/03/19 08:05:26;;;;;;;5.43;3.58;;;11.80;99.90;;;;;;4963168;28;20061;-76
2023/03/19 08:07:52;;;;;;;8.48;3.20;;;11.80;99.90;;;;;;4994433;28;20042;-75
2023/03/19 08:10:18;;;;;;;10.13;3.80;;;11.80;99.90;;;;;;4969180;28;20082;-75
2023/03/19 08:12:43;;;;;;;16.25;7.10;;;11.80;99.90;;;;;;4966372;28;20112;-75
2023/03/19 08:15:10;;;;;;;7.47;4.30;;;11.80;99.90;;;;;;4987565;28;20100;-75
2023/03/19 08:17:39;;;;;;;8.35;3.90;;;11.90;99.90;;;;;;4960283;28;20074;-75
2023/03/19 08:20:09;;;;;;;8.20;4.22;;;11.90;99.90;;;;;;4983980;28;20058;-75
2023/03/19 08:22:36;;;;;;;6.30;3.70;;;11.80;99.90;;;;;;4986312;28;20046;-75
2023/03/19 08:25:02;;;;;;;10.13;3.70;;;11.80;99.90;;;;;;4959086;28;20038;-75
2023/03/19 08:27:30;;;;;;;6.13;3.63;;;11.80;99.90;;;;;;4954320;28;20117;-75
2023/03/19 08:29:56;;;;;;;7.00;3.60;;;11.80;99.90;;;;;;4970460;28;20043;-76
2023/03/19 08:32:22;;;;;;;6.70;3.92;;;11.90;99.90;;;;;;4967335;28;20138;-76
2023/03/19 08:34:49;;;;;;;6.85;4.03;;;11.80;99.90;;;;;;4960567;28;20826;-75
2023/03/19 08:37:14;;;;;;;8.02;4.32;;;11.80;99.90;;;;;;4979651;28;20058;-75
2023/03/19 08:39:41;;;;;;;7.45;4.70;;;11.70;99.90;;;;;;4991391;28;20072;-76
2023/03/19 08:42:07;;;;;;;7.28;4.45;;;11.70;99.90;;;;;;4958493;28;20035;-76
2023/03/19 08:44:32;;;;;;;7.90;4.25;;;11.70;99.90;;;;;;4983043;28;20732;-76
2023/03/19 08:46:59;;;;;;;7.13;4.25;;;11.70;99.90;;;;;;4972772;28;20038;-76
2023/03/19 08:49:25;;;;;;;9.38;4.90;;;11.70;99.90;;;;;;4960541;28;20046;-75
2023/03/19 08:51:51;;;;;;;10.98;4.30;;;11.60;99.90;;;;;;4975985;28;20530;-75
2023/03/19 08:54:17;;;;;;;9.10;4.55;;;11.50;99.90;;;;;;4986140;28;20058;-75
2023/03/19 08:56:42;;;;;;;8.63;4.65;;;11.50;99.90;;;;;;4982418;28;20410;-75
2023/03/19 08:59:09;;;;;;;7.93;4.93;;;11.40;99.90;;;;;;4933787;28;20491;-74
2023/03/19 09:01:36;;;;;;;9.98;5.22;;;11.30;99.90;;;;;;4956369;28;20077;-74
2023/03/19 09:04:02;;;;;;;6.97;4.50;;;11.30;99.90;;;;;;4961956;28;20081;-75
2023/03/19 09:06:27;;;;;;;9.02;4.97;;;11.30;99.90;;;;;;4955801;28;20047;-74
2023/03/19 09:08:53;;;;;;;11.45;5.45;;;11.30;99.90;;;;;;4948218;28;20057;-75
2023/03/19 09:11:19;;;;;;;7.85;3.80;;;11.40;99.90;;;;;;4968612;28;20064;-74
2023/03/19 09:13:45;;;;;;;9.60;4.35;;;11.50;99.90;;;;;;4955618;28;20046;-74
2023/03/19 09:16:11;;;;;;;9.80;4.95;;;11.50;99.90;;;;;;4947891;28;20059;-75
2023/03/19 09:18:36;;;;;;;10.05;3.92;;;11.50;99.90;;;;;;4929365;28;20038;-74
2023/03/19 09:21:02;;;;;;;8.77;4.22;;;11.50;99.90;;;;;;4971286;28;20078;-74
2023/03/19 09:23:28;;;;;;;6.95;3.17;;;11.70;99.90;;;;;;4962105;28;20748;-74
2023/03/19 09:25:54;;;;;;;6.50;2.65;;;11.90;99.90;;;;;;4954467;28;20129;-75
2023/03/19 09:28:21;;;;;;;5.47;2.30;;;12.20;99.90;;;;;;4973786;28;20050;-75
2023/03/19 09:30:48;;;;;;;5.07;2.23;;;12.40;99.90;;;;;;4961149;28;20045;-74
2023/03/19 09:33:15;;;;;;;4.70;2.30;;;12.60;99.90;;;;;;4969972;28;20337;-75
2023/03/19 09:35:41;;;;;;;5.78;2.95;;;12.70;99.90;;;;;;4952189;28;20050;-75
2023/03/19 09:38:07;;;;;;;7.30;2.88;;;12.80;99.90;;;;;;4970087;28;20121;-77
2023/03/19 09:40:36;;;;;;;5.72;2.72;;;12.90;99.90;;;;;;4973568;28;20125;-77
2023/03/19 09:43:05;;;;;;;4.45;2.35;;;13.10;99.90;;;;;;4970263;28;20046;-76
2023/03/19 09:45:31;;;;;;;6.95;2.85;;;13.30;99.90;;;;;;4983757;28;20039;-76
2023/03/19 09:48:10;;;;;;;5.20;2.38;;;13.50;99.90;;;;;;4974605;28;20057;-75
2023/03/19 09:50:37;;;;;;;4.55;1.58;;;13.70;99.90;;;;;;4960450;28;20046;-75
2023/03/19 09:53:17;;;;;;;1.75;1.20;;;13.90;99.90;;;;;;4952512;28;20065;-73
2023/03/19 09:55:47;;;;;;;4.03;1.60;;;14.20;99.90;;;;;;4968363;28;20053;-73
2023/03/19 09:58:20;;;;;;;3.95;1.70;;;14.40;99.90;;;;;;4964814;28;20062;-73
2023/03/19 10:00:50;;;;;;;1.38;0.77;;;14.60;99.90;;;;;;4958548;28;20046;-73
2023/03/19 10:03:25;;;;;;;1.98;0.88;;;14.90;99.90;;;;;;4970019;28;20051;-73
2023/03/19 10:06:15;;;;;;;2.13;0.88;;;15.00;99.90;;;;;;4978973;28;20123;-75
2023/03/19 10:08:50;;;;;;;1.58;0.80;;;14.80;99.90;;;;;;4953915;28;20109;-75
2023/03/19 10:11:43;;;;;;;4.00;0.90;;;14.90;99.90;;;;;;4982127;28;20404;-75
2023/03/19 10:14:34;;;;;;;3.22;1.33;;;15.00;99.90;;;;;;4989107;28;20046;-75
2023/03/19 10:17:00;;;;;;;2.00;1.00;;;15.50;99.90;;;;;;4981304;28;20051;-75
2023/03/19 10:19:43;;;;;;;1.90;0.82;;;15.40;99.90;;;;;;4957611;28;20038;-74
2023/03/19 10:22:13;;;;;;;2.10;0.80;;;15.30;99.90;;;;;;4959955;28;20085;-74
2023/03/19 10:24:43;;;;;;;1.90;0.80;;;15.30;99.90;;;;;;4976580;28;20046;-74
2023/03/19 10:27:14;;;;;;;3.58;1.10;;;15.20;99.90;;;;;;4967693;28;20043;-76
2023/03/19 10:29:40;;;;;;;1.50;0.63;;;15.50;99.90;;;;;;4945181;28;20050;-76
2023/03/19 10:32:25;;;;;;;3.42;1.08;;;15.20;99.90;;;;;;4969279;28;20668;-76
2023/03/19 10:34:52;;;;;;;1.20;0.80;;;15.10;99.90;;;;;;4990465;28;20116;-77
2023/03/19 10:37:19;;;;;;;1.50;1.10;;;15.20;99.90;;;;;;4964307;28;20141;-75
2023/03/19 10:39:48;;;;;;;1.75;1.02;;;15.30;99.90;;;;;;4972726;28;20046;-76
2023/03/19 10:42:48;;;;;;;2.88;1.40;;;14.90;99.90;;;;;;4955474;28;20042;-75
2023/03/19 10:45:30;;;;;;;3.70;1.00;;;15.30;99.90;;;;;;4986828;28;20046;-75
2023/03/19 10:47:56;;;;;;;3.05;1.45;;;15.80;99.90;;;;;;4965011;28;20130;-76
2023/03/19 10:50:27;;;;;;;2.92;1.45;;;15.80;99.90;;;;;;4958993;28;20034;-76
2023/03/19 10:53:03;;;;;;;4.68;1.70;;;16.00;99.90;;;;;;4967088;28;20050;-75
2023/03/19 10:55:30;;;;;;;7.80;4.70;;;15.90;99.90;;;;;;4985263;28;20094;-75
2023/03/19 10:58:04;;;;;;;5.40;2.45;;;16.20;99.90;;;;;;4942629;28;20050;-75
2023/03/19 11:00:34;;;;;;;3.95;1.70;;;16.20;99.90;;;;;;4934896;28;20483;-75
2023/03/19 11:03:03;;;;;;;1.92;1.20;;;16.10;99.90;;;;;;4951360;28;20096;-75
2023/03/19 11:05:33;;;;;;;3.22;2.03;;;16.40;99.90;;;;;;4966866;28;20047;-74
2023/03/19 11:08:05;;;;;;;3.60;1.50;;;16.60;99.90;;;;;;4961735;28;20050;-75
2023/03/19 11:10:34;;;;;;;1.48;1.00;;;16.80;99.90;;;;;;4968733;28;20506;-75
2023/03/19 11:13:18;;;;;;;2.83;1.20;;;17.40;99.90;;;;;;4965764;28;20497;-77
2023/03/19 11:15:45;;;;;;;3.83;1.63;;;17.90;99.90;;;;;;4957644;28;20423;-75
2023/03/19 11:18:19;;;;;;;2.42;1.20;;;18.20;99.90;;;;;;4961716;28;20070;-76
2023/03/19 11:21:00;;;;;;;1.80;0.73;;;18.00;99.90;;;;;;4942966;28;20661;-75
2023/03/19 11:23:27;;;;;;;1.83;0.80;;;17.80;99.90;;;;;;4968000;28;20062;-75
2023/03/19 11:25:54;;;;;;;1.75;0.80;;;17.50;99.90;;;;;;4966431;28;20427;-78
2023/03/19 11:28:25;;;;;;;3.00;1.20;;;17.40;99.90;;;;;;4980257;28;20197;-75
2023/03/19 11:31:11;;;;;;;2.08;1.13;;;16.90;99.90;;;;;;4970949;28;20549;-75
2023/03/19 11:33:57;;;;;;;3.53;1.20;;;16.70;99.90;;;;;;4972288;28;20521;-75
2023/03/19 11:36:58;;;;;;;2.72;0.90;;;16.60;99.90;;;;;;4960073;28;20043;-75
2023/03/19 11:39:44;;;;;;;3.22;1.30;;;16.40;99.90;;;;;;4990987;28;20113;-77
2023/03/19 11:42:23;;;;;;;4.55;1.30;;;16.60;99.90;;;;;;4978863;28;20134;-77
2023/03/19 11:45:48;;;;;;;2.67;1.50;;;16.70;99.90;;;;;;4968016;28;20117;-75
2023/03/19 11:48:36;;;;;;;2.17;1.15;;;16.60;99.90;;;;;;4969422;28;20046;-75
2023/03/19 11:51:22;;;;;;;;;;;16.60;99.90;;;;;;4927950;28;20047;-76
2023/03/19 11:54:05;;;;;;;3.28;1.48;;;16.60;99.90;;;;;;4967864;28;20311;-73
2023/03/19 11:56:35;;;;;;;1.95;0.95;;;16.70;99.90;;;;;;4953127;28;20042;-74
2023/03/19 11:59:20;;;;;;;4.78;1.50;;;16.90;99.90;;;;;;4968379;28;20469;-75
2023/03/19 12:02:01;;;;;;;6.38;2.47;;;17.40;99.90;;;;;;4988038;28;20146;-75
2023/03/19 12:04:42;;;;;;;5.13;2.20;;;17.20;99.90;;;;;;4973903;28;20050;-73
2023/03/19 12:07:35;;;;;;;5.00;2.10;;;17.20;99.90;;;;;;4979364;28;20051;-74
2023/03/19 12:10:19;;;;;;;6.35;2.55;;;17.20;99.90;;;;;;4984906;28;20043;-77
2023/03/19 12:13:02;;;;;;;8.93;3.00;;;17.10;99.90;;;;;;4994646;28;20463;-75
2023/03/19 12:15:48;;;;;;;6.28;2.80;;;16.70;99.90;;;;;;4993023;28;20180;-75
2023/03/19 12:18:45;;;;;;;6.80;2.60;;;16.70;99.90;;;;;;4974230;28;20192;-75
2023/03/19 12:21:18;;;;;;;7.47;3.20;;;16.70;99.90;;;;;;4980638;28;20053;-73
2023/03/19 12:24:13;;;;;;;6.40;2.72;;;16.40;99.90;;;;;;4979787;28;20050;-74
2023/03/19 12:26:58;;;;;;;6.32;2.78;;;16.20;99.90;;;;;;4981036;28;20043;-73
2023/03/19 12:29:45;;;;;;;6.45;2.30;;;16.10;99.90;;;;;;4985459;28;20043;-74
2023/03/19 12:32:31;;;;;;;5.07;2.03;;;16.20;99.90;;;;;;4979194;28;20303;-75
2023/03/19 12:35:00;;;;;;;4.72;2.15;;;16.10;99.90;;;;;;4980883;28;20443;-74
2023/03/19 12:37:29;;;;;;;5.03;1.80;;;16.00;99.90;;;;;;4973221;28;20054;-74
2023/03/19 12:40:05;;;;;;;5.20;1.77;;;16.00;99.90;;;;;;4955694;28;20456;-74
2023/03/19 12:42:35;;;;;;;6.22;2.10;;;16.10;99.90;;;;;;4979546;28;20050;-74
2023/03/19 12:45:01;;;;;;;5.05;1.80;;;16.20;99.90;;;;;;4959369;28;20105;-74
2023/03/19 12:47:35;;;;;;;5.10;1.67;;;16.20;99.90;;;;;;4972769;28;20529;-74
2023/03/19 12:50:12;;;;;;;3.03;1.73;;;16.30;99.90;;;;;;4964197;28;20046;-74
2023/03/19 12:52:39;;;;;;;3.15;1.83;;;16.50;99.90;;;;;;4965010;28;20058;-74
2023/03/19 12:55:35;;;;;;;4.93;1.40;;;16.90;99.90;;;;;;4955929;28;20043;-75
2023/03/19 12:58:24;;;;;;;4.25;2.05;;;17.30;99.90;;;;;;4985501;28;20165;-75